createdAt,value
2019-01-17T00:00:47.212Z,88.02
2019-01-17T00:03:47.439Z,87.71
2019-01-17T00:06:38.546Z,86.52
2019-01-17T00:09:14.030Z,87.26
2019-01-17T00:12:11.265Z,87.44
2019-01-17T00:15:08.139Z,87.28
2019-01-17T00:17:54.609Z,87.01
2019-01-17T00:20:41.356Z,87.11
2019-01-17T00:23:27.613Z,86.94
2019-01-17T00:26:10.069Z,86.43
2019-01-17T00:28:56.437Z,86.67
2019-01-17T00:31:32.131Z,87.01
2019-01-17T00:34:26.076Z,87.01
2019-01-17T00:37:16.923Z,87.06
2019-01-17T00:40:20.282Z,86.84
2019-01-17T00:43:02.629Z,86.76
2019-01-17T00:45:56.528Z,86.82
2019-01-17T00:48:33.046Z,86.62
2019-01-17T00:51:19.890Z,86.81
2019-01-17T00:54:09.152Z,86.81
2019-01-17T00:56:54.000Z,86.89
2019-01-17T00:59:44.612Z,86.55
2019-01-17T01:02:47.798Z,86.89
2019-01-17T01:05:41.675Z,86.72
2019-01-17T01:08:47.809Z,86.77
2019-01-17T01:11:38.436Z,86.90
2019-01-17T01:14:17.263Z,86.65
2019-01-17T01:17:10.606Z,86.58
2019-01-17T01:19:48.943Z,86.63
2019-01-17T01:22:45.940Z,86.63
2019-01-17T01:25:25.143Z,86.88
2019-01-17T01:28:15.197Z,86.74
2019-01-17T01:30:58.360Z,86.79
2019-01-17T01:33:45.056Z,86.96
2019-01-17T01:36:39.137Z,86.48
2019-01-17T01:39:18.766Z,86.60
2019-01-17T01:42:05.476Z,86.38
2019-01-17T01:44:59.251Z,86.55
2019-01-17T01:47:46.016Z,86.43
2019-01-17T01:50:42.953Z,86.41
2019-01-17T01:53:11.865Z,86.07
2019-01-17T01:55:40.726Z,85.53
2019-01-17T01:58:09.616Z,86.08
2019-01-17T02:00:38.501Z,86.44
2019-01-17T02:03:07.416Z,84.98
2019-01-17T02:05:36.277Z,86.07
2019-01-17T02:08:05.500Z,86.33
2019-01-17T02:10:34.403Z,86.49
2019-01-17T02:13:03.338Z,86.54
2019-01-17T02:15:32.179Z,86.55
2019-01-17T02:18:01.122Z,86.17
2019-01-17T02:20:29.921Z,86.40
2019-01-17T02:22:58.794Z,86.57
2019-01-17T02:25:27.638Z,87.13
2019-01-17T02:27:56.517Z,86.60
2019-01-17T02:30:25.391Z,87.08
2019-01-17T02:32:54.271Z,86.92
2019-01-17T02:35:23.164Z,87.88
2019-01-17T02:37:52.034Z,87.68
2019-01-17T02:40:20.916Z,87.27
2019-01-17T02:42:49.790Z,86.05
2019-01-17T02:45:18.665Z,86.73
2019-01-17T02:47:47.544Z,86.79
2019-01-17T02:50:16.460Z,86.97
2019-01-17T02:52:45.367Z,87.39
2019-01-17T02:55:14.192Z,87.54
2019-01-17T02:57:43.071Z,87.47
2019-01-17T03:00:14.677Z,88.06
2019-01-17T03:02:43.572Z,87.65
2019-01-17T03:05:12.460Z,88.42
2019-01-17T03:07:41.349Z,87.66
2019-01-17T03:10:13.390Z,88.43
2019-01-17T03:12:42.298Z,88.00
2019-01-17T03:15:11.189Z,88.31
2019-01-17T03:17:40.088Z,88.33
2019-01-17T03:20:09.980Z,87.88
2019-01-17T03:22:38.835Z,88.36
2019-01-17T03:25:08.190Z,88.34
2019-01-17T03:27:37.085Z,88.02
2019-01-17T03:30:12.408Z,88.10
2019-01-17T03:32:41.275Z,88.19
2019-01-17T03:35:10.172Z,88.51
2019-01-17T03:37:39.034Z,88.26
2019-01-17T03:40:09.513Z,87.04
2019-01-17T03:42:38.408Z,87.85
2019-01-17T03:45:08.209Z,87.78
2019-01-17T03:47:37.084Z,87.47
2019-01-17T03:50:07.324Z,87.74
2019-01-17T03:52:36.209Z,87.70
2019-01-17T03:55:05.220Z,87.36
2019-01-17T03:57:34.113Z,86.44
2019-01-17T04:00:03.015Z,87.17
2019-01-17T04:02:31.892Z,87.54
2019-01-17T04:05:00.815Z,87.22
2019-01-17T04:07:29.673Z,87.94
2019-01-17T04:09:58.552Z,88.02
2019-01-17T04:12:27.449Z,87.54
2019-01-17T04:14:56.342Z,86.56
2019-01-17T04:17:25.205Z,85.70
2019-01-17T04:19:54.107Z,86.95
2019-01-17T04:22:22.973Z,86.96
2019-01-17T04:24:57.345Z,87.75
2019-01-17T04:27:20.724Z,87.49
2019-01-17T04:29:49.596Z,87.69
2019-01-17T04:32:18.489Z,87.64
2019-01-17T04:34:47.389Z,87.27
2019-01-17T04:37:16.269Z,87.52
2019-01-17T04:39:45.154Z,87.57
2019-01-17T04:42:14.039Z,88.09
2019-01-17T04:44:42.927Z,87.83
2019-01-17T04:47:11.824Z,88.18
2019-01-17T04:49:40.707Z,87.89
2019-01-17T04:52:09.611Z,87.46
2019-01-17T04:54:38.580Z,87.66
2019-01-17T04:57:07.385Z,88.80
2019-01-17T04:59:36.254Z,88.32
2019-01-17T05:02:05.220Z,88.51
2019-01-17T05:04:34.087Z,88.59
2019-01-17T05:07:03.002Z,88.49
2019-01-17T05:09:31.873Z,88.57
2019-01-17T05:12:00.771Z,88.60
2019-01-17T05:14:29.653Z,87.90
2019-01-17T05:16:58.539Z,88.38
2019-01-17T05:19:27.431Z,88.48
2019-01-17T05:21:56.326Z,88.62
2019-01-17T05:24:25.228Z,88.90
2019-01-17T05:26:54.104Z,88.40
2019-01-17T05:29:22.981Z,88.56
2019-01-17T05:31:51.851Z,89.37
2019-01-17T05:34:20.747Z,89.16
2019-01-17T05:36:49.647Z,89.27
2019-01-17T05:39:18.543Z,89.15
2019-01-17T05:41:47.413Z,88.85
2019-01-17T05:44:16.271Z,89.16
2019-01-17T05:46:45.145Z,88.36
2019-01-17T05:49:14.012Z,88.45
2019-01-17T05:51:42.914Z,89.30
2019-01-17T05:54:11.780Z,89.13
2019-01-17T05:56:40.680Z,89.20
2019-01-17T05:59:09.555Z,89.08
2019-01-17T06:01:38.445Z,88.90
2019-01-17T06:04:07.350Z,89.28
2019-01-17T06:06:36.225Z,88.79
2019-01-17T06:09:08.414Z,89.07
2019-01-17T06:11:37.300Z,88.59
2019-01-17T06:14:06.224Z,88.69
2019-01-17T06:16:35.095Z,89.17
2019-01-17T06:19:03.970Z,89.19
2019-01-17T06:21:32.835Z,89.37
2019-01-17T06:24:01.756Z,88.86
2019-01-17T06:26:30.635Z,89.56
2019-01-17T06:28:59.501Z,89.11
2019-01-17T06:31:28.392Z,88.97
2019-01-17T06:33:57.262Z,88.83
2019-01-17T06:36:26.176Z,88.98
2019-01-17T06:38:55.051Z,88.81
2019-01-17T06:41:23.907Z,88.87
2019-01-17T06:43:52.803Z,89.08
2019-01-17T06:46:21.723Z,89.12
2019-01-17T06:48:50.596Z,88.73
2019-01-17T06:51:19.450Z,88.78
2019-01-17T06:53:48.342Z,88.83
2019-01-17T06:56:17.207Z,88.72
2019-01-17T06:58:46.124Z,88.62
2019-01-17T07:01:15.013Z,88.88
2019-01-17T07:03:43.913Z,88.93
2019-01-17T07:06:12.769Z,88.82
2019-01-17T07:08:41.645Z,88.68
2019-01-17T07:11:10.548Z,87.65
2019-01-17T07:13:39.448Z,86.46
2019-01-17T07:16:08.375Z,86.22
2019-01-17T07:18:37.258Z,87.42
2019-01-17T07:21:06.251Z,87.26
2019-01-17T07:23:35.113Z,87.49
2019-01-17T07:26:04.018Z,87.70
2019-01-17T07:28:32.913Z,87.36
2019-01-17T07:31:01.785Z,87.48
2019-01-17T07:33:30.691Z,87.61
2019-01-17T07:35:59.542Z,86.24
2019-01-17T07:38:28.496Z,87.01
2019-01-17T07:40:57.379Z,86.77
2019-01-17T07:43:26.249Z,87.30
2019-01-17T07:45:55.154Z,87.51
2019-01-17T07:48:24.034Z,87.20
2019-01-17T07:50:52.925Z,87.57
2019-01-17T07:53:21.825Z,87.40
2019-01-17T07:55:50.691Z,88.13
2019-01-17T07:58:19.572Z,87.67
2019-01-17T08:00:48.459Z,86.62
2019-01-17T08:03:17.349Z,87.38
2019-01-17T08:05:46.223Z,87.43
2019-01-17T08:08:15.105Z,86.03
2019-01-17T08:10:43.959Z,86.66
2019-01-17T08:13:17.760Z,86.72
2019-01-17T08:15:52.108Z,87.31
2019-01-17T08:18:21.299Z,87.31
2019-01-17T08:20:55.403Z,87.28
2019-01-17T08:23:27.016Z,86.97
2019-01-17T08:25:58.946Z,86.93
2019-01-17T08:28:30.063Z,87.42
2019-01-17T08:30:59.510Z,87.02
2019-01-17T08:33:33.058Z,87.38
2019-01-17T08:36:05.094Z,87.18
2019-01-17T08:38:35.531Z,87.42
2019-01-17T08:41:08.211Z,87.18
2019-01-17T08:43:37.453Z,86.95
2019-01-17T08:46:12.998Z,86.92
2019-01-17T08:48:42.911Z,86.89
2019-01-17T08:51:12.467Z,86.57
2019-01-17T08:53:43.982Z,85.65
2019-01-17T08:56:13.443Z,84.59
2019-01-17T08:58:42.647Z,84.43
2019-01-17T09:01:14.389Z,84.43
2019-01-17T09:03:43.640Z,84.70
2019-01-17T09:06:13.078Z,84.91
2019-01-17T09:08:44.166Z,84.89
2019-01-17T09:11:31.497Z,84.98
2019-01-17T09:14:00.587Z,84.73
2019-01-17T09:16:35.331Z,84.52
2019-01-17T09:19:11.536Z,84.09
2019-01-17T09:21:44.591Z,84.54
2019-01-17T09:24:16.990Z,84.02
2019-01-17T09:26:46.496Z,84.36
2019-01-17T09:29:16.787Z,84.53
2019-01-17T09:31:49.213Z,85.21
2019-01-17T09:34:18.398Z,85.50
2019-01-17T09:36:47.683Z,85.54
2019-01-17T09:39:17.107Z,85.57
2019-01-17T09:41:46.747Z,85.72
2019-01-17T09:44:17.515Z,85.95
2019-01-17T09:46:51.205Z,86.52
2019-01-17T09:49:20.307Z,86.38
2019-01-17T09:51:51.917Z,86.25
2019-01-17T09:54:20.994Z,85.98
2019-01-17T09:56:51.730Z,85.93
2019-01-17T09:59:20.831Z,84.63
2019-01-17T10:01:54.184Z,85.59
2019-01-17T10:04:26.571Z,85.56
2019-01-17T10:06:58.792Z,84.03
2019-01-17T10:09:27.810Z,85.16
2019-01-17T10:12:00.435Z,85.34
2019-01-17T10:14:29.654Z,85.50
2019-01-17T10:17:27.126Z,85.54
2019-01-17T10:20:34.619Z,86.47
2019-01-17T10:23:50.637Z,86.57
2019-01-17T10:26:47.383Z,86.02
2019-01-17T10:29:54.930Z,85.95
2019-01-17T10:32:40.166Z,86.05
2019-01-17T10:35:57.014Z,85.90
2019-01-17T10:38:50.909Z,85.70
2019-01-17T10:42:07.490Z,86.31
2019-01-17T10:45:28.837Z,86.50
2019-01-17T10:48:39.690Z,86.15
2019-01-17T10:51:41.359Z,86.17
2019-01-17T10:54:57.397Z,86.41
2019-01-17T10:57:58.222Z,85.11
2019-01-17T11:00:58.350Z,85.81
2019-01-17T11:03:59.904Z,85.93
2019-01-17T11:07:03.794Z,85.13
2019-01-17T11:09:57.839Z,85.07
2019-01-17T11:13:05.842Z,85.27
2019-01-17T11:16:15.513Z,85.34
2019-01-17T11:19:07.471Z,85.00
2019-01-17T11:22:11.862Z,84.95
2019-01-17T11:25:14.642Z,85.06
2019-01-17T11:28:13.868Z,84.82
2019-01-17T11:31:19.355Z,84.75
2019-01-17T11:34:13.732Z,83.92
2019-01-17T11:37:21.177Z,83.75
2019-01-17T11:40:23.933Z,84.34
2019-01-17T11:43:10.460Z,84.41
2019-01-17T11:46:30.858Z,83.50
2019-01-17T11:49:36.084Z,82.79
2019-01-17T11:52:29.075Z,82.75
2019-01-17T11:55:40.578Z,83.29
2019-01-17T11:58:21.181Z,83.29
2019-01-17T12:01:54.029Z,83.28
2019-01-17T12:04:53.963Z,82.77
2019-01-17T12:07:27.961Z,83.27
2019-01-17T12:09:58.413Z,83.73
2019-01-17T12:12:33.708Z,83.98
2019-01-17T12:15:01.434Z,83.77
2019-01-17T12:17:31.400Z,83.81
2019-01-17T12:20:06.170Z,83.67
2019-01-17T12:22:35.048Z,83.59
2019-01-17T12:25:04.223Z,82.52
2019-01-17T12:27:33.096Z,81.80
2019-01-17T12:30:02.085Z,82.43
2019-01-17T12:32:30.939Z,82.47
2019-01-17T12:34:59.806Z,81.86
2019-01-17T12:37:28.718Z,81.63
2019-01-17T12:40:00.336Z,80.92
2019-01-17T12:42:29.243Z,80.96
2019-01-17T12:44:58.110Z,81.39
2019-01-17T12:47:26.982Z,80.99
2019-01-17T12:49:55.861Z,80.32
2019-01-17T12:52:24.733Z,80.20
2019-01-17T12:54:53.593Z,80.96
2019-01-17T12:57:22.545Z,80.74
2019-01-17T12:59:51.446Z,80.49
2019-01-17T13:02:20.343Z,80.36
2019-01-17T13:04:49.242Z,80.48
2019-01-17T13:07:18.145Z,80.40
2019-01-17T13:09:47.027Z,80.00
2019-01-17T13:12:15.891Z,77.57
2019-01-17T13:14:44.803Z,76.78
2019-01-17T13:17:13.687Z,78.57
2019-01-17T13:19:42.578Z,78.74
2019-01-17T13:22:11.474Z,78.95
2019-01-17T13:24:40.379Z,78.98
2019-01-17T13:27:09.295Z,79.38
2019-01-17T13:29:38.193Z,78.07
2019-01-17T13:32:07.249Z,79.42
2019-01-17T13:34:36.161Z,79.70
2019-01-17T13:37:05.105Z,79.80
2019-01-17T13:39:33.989Z,79.88
2019-01-17T13:42:02.890Z,79.72
2019-01-17T13:44:31.743Z,79.76
2019-01-17T13:47:00.609Z,79.96
2019-01-17T13:49:29.487Z,80.10
2019-01-17T13:51:58.332Z,80.36
2019-01-17T13:54:27.212Z,78.74
2019-01-17T13:56:56.087Z,80.21
2019-01-17T13:59:24.967Z,79.76
2019-01-17T14:01:53.853Z,79.75
2019-01-17T14:04:22.729Z,80.33
2019-01-17T14:06:52.667Z,80.30
2019-01-17T14:09:21.594Z,80.42
2019-01-17T14:11:52.686Z,80.36
2019-01-17T14:14:21.561Z,80.76
2019-01-17T14:16:50.428Z,79.62
2019-01-17T14:19:19.359Z,78.45
2019-01-17T14:21:48.275Z,79.24
2019-01-17T14:24:17.129Z,78.08
2019-01-17T14:26:46.004Z,76.13
2019-01-17T14:29:14.872Z,77.63
2019-01-17T14:31:43.799Z,77.26
2019-01-17T14:34:12.712Z,76.96
2019-01-17T14:36:41.640Z,77.58
2019-01-17T14:39:10.504Z,77.74
2019-01-17T14:41:39.368Z,78.16
2019-01-17T14:44:08.431Z,77.58
2019-01-17T14:46:37.299Z,77.12
2019-01-17T14:49:06.233Z,77.47
2019-01-17T14:51:36.039Z,78.22
2019-01-17T14:54:04.996Z,78.75
2019-01-17T14:56:34.047Z,78.21
2019-01-17T14:59:02.916Z,78.34
2019-01-17T15:01:31.841Z,78.90
2019-01-17T15:04:00.721Z,79.00
2019-01-17T15:06:29.634Z,78.77
2019-01-17T15:08:58.494Z,79.50
2019-01-17T15:11:27.401Z,79.34
2019-01-17T15:13:58.823Z,79.37
2019-01-17T15:16:27.709Z,78.87
2019-01-17T15:18:56.629Z,79.59
2019-01-17T15:21:25.543Z,79.93
2019-01-17T15:23:54.430Z,79.98
2019-01-17T15:26:23.315Z,80.16
2019-01-17T15:28:52.202Z,80.58
2019-01-17T15:31:21.171Z,81.20
2019-01-17T15:33:50.086Z,81.20
2019-01-17T15:36:18.965Z,81.24
2019-01-17T15:38:47.856Z,80.99
2019-01-17T15:41:16.747Z,81.76
2019-01-17T15:43:45.637Z,81.37
2019-01-17T15:46:14.539Z,81.29
2019-01-17T15:48:43.458Z,81.31
2019-01-17T15:51:12.362Z,81.33
2019-01-17T15:53:41.265Z,80.22
2019-01-17T15:56:10.134Z,80.93
2019-01-17T15:58:39.074Z,81.68
2019-01-17T16:01:08.101Z,81.47
2019-01-17T16:03:37.021Z,81.19
2019-01-17T16:06:05.963Z,81.22
2019-01-17T16:08:35.115Z,81.46
2019-01-17T16:11:04.434Z,81.74
2019-01-17T16:13:34.034Z,81.90
2019-01-17T16:16:07.910Z,80.89
2019-01-17T16:18:37.408Z,81.17
2019-01-17T16:21:09.808Z,81.18
2019-01-17T16:23:41.749Z,80.77
2019-01-17T16:26:11.945Z,80.75
2019-01-17T16:28:40.927Z,81.01
2019-01-17T16:31:10.635Z,80.79
2019-01-17T16:33:42.089Z,81.12
2019-01-17T16:36:11.299Z,81.00
2019-01-17T16:38:45.069Z,81.95
2019-01-17T16:41:12.822Z,82.41
2019-01-17T16:43:42.212Z,82.48
2019-01-17T16:46:11.448Z,82.96
2019-01-17T16:48:40.678Z,82.83
2019-01-17T16:51:11.622Z,83.01
2019-01-17T16:53:41.722Z,82.93
2019-01-17T16:56:10.909Z,82.81
2019-01-17T16:58:42.418Z,83.08
2019-01-17T17:01:11.962Z,83.13
2019-01-17T17:03:41.294Z,83.86
2019-01-17T17:06:10.577Z,83.57
2019-01-17T17:08:43.604Z,83.66
2019-01-17T17:11:12.697Z,83.24
2019-01-17T17:13:41.993Z,83.09
2019-01-17T17:16:16.592Z,83.29
2019-01-17T17:18:50.963Z,83.45
2019-01-17T17:21:22.859Z,83.47
2019-01-17T17:23:53.822Z,83.49
2019-01-17T17:26:28.357Z,83.38
2019-01-17T17:28:57.647Z,83.68
2019-01-17T17:31:26.872Z,83.62
2019-01-17T17:33:56.135Z,82.94
2019-01-17T17:36:25.393Z,83.99
2019-01-17T17:38:54.560Z,84.20
2019-01-17T17:41:23.952Z,84.27
2019-01-17T17:43:53.116Z,84.09
2019-01-17T17:46:22.291Z,83.80
2019-01-17T17:48:51.656Z,84.21
2019-01-17T17:51:21.074Z,84.09
2019-01-17T17:53:50.312Z,83.94
2019-01-17T17:56:21.746Z,84.15
2019-01-17T17:58:50.901Z,84.56
2019-01-17T18:01:29.664Z,84.57
2019-01-17T18:03:59.395Z,84.86
2019-01-17T18:06:28.519Z,85.06
2019-01-17T18:08:57.707Z,84.69
2019-01-17T18:11:26.801Z,84.54
2019-01-17T18:13:59.479Z,84.57
2019-01-17T18:16:30.918Z,84.26
2019-01-17T18:19:02.532Z,84.43
2019-01-17T18:21:33.632Z,84.13
2019-01-17T18:24:01.772Z,84.04
2019-01-17T18:26:30.989Z,83.68
2019-01-17T18:29:00.278Z,83.76
2019-01-17T18:31:29.349Z,84.01
2019-01-17T18:33:58.542Z,83.92
2019-01-17T18:36:30.128Z,83.32
2019-01-17T18:38:59.233Z,83.49
2019-01-17T18:41:28.519Z,83.87
2019-01-17T18:43:57.640Z,83.81
2019-01-17T18:46:26.826Z,84.15
2019-01-17T18:48:58.764Z,84.54
2019-01-17T18:51:27.973Z,84.01
2019-01-17T18:53:58.977Z,84.31
2019-01-17T18:56:28.354Z,84.81
2019-01-17T18:58:57.320Z,84.78
2019-01-17T19:01:26.599Z,85.44
2019-01-17T19:03:55.908Z,84.77
2019-01-17T19:06:25.025Z,84.76
2019-01-17T19:08:54.150Z,85.06
2019-01-17T19:11:23.412Z,85.80
2019-01-17T19:13:52.615Z,85.25
2019-01-17T19:16:24.589Z,84.82
2019-01-17T19:18:53.695Z,85.32
2019-01-17T19:21:22.844Z,85.73
2019-01-17T19:23:51.915Z,85.46
2019-01-17T19:26:21.063Z,85.09
2019-01-17T19:28:50.194Z,85.18
2019-01-17T19:31:19.356Z,84.59
2019-01-17T19:33:51.153Z,85.10
2019-01-17T19:36:23.449Z,84.87
2019-01-17T19:38:56.058Z,85.01
2019-01-17T19:41:25.451Z,84.74
2019-01-17T19:43:57.414Z,84.56
2019-01-17T19:46:27.606Z,84.73
2019-01-17T19:48:56.850Z,84.57
2019-01-17T19:51:27.850Z,84.42
2019-01-17T19:53:57.570Z,84.64
2019-01-17T19:56:31.766Z,84.50
2019-01-17T19:59:03.853Z,84.49
2019-01-17T20:01:34.640Z,84.35
2019-01-17T20:04:08.588Z,84.49
2019-01-17T20:06:37.796Z,83.67
2019-01-17T20:09:09.696Z,84.14
2019-01-17T20:11:44.665Z,84.63
2019-01-17T20:14:13.628Z,84.81
2019-01-17T20:16:44.875Z,84.60
2019-01-17T20:19:16.929Z,84.57
2019-01-17T20:21:43.496Z,84.60
2019-01-17T20:24:17.354Z,84.43
2019-01-17T20:26:46.626Z,84.60
2019-01-17T20:29:15.988Z,84.46
2019-01-17T20:31:47.172Z,84.53
2019-01-17T20:34:16.749Z,83.74
2019-01-17T20:36:46.011Z,84.42
2019-01-17T20:39:17.858Z,84.09
2019-01-17T20:41:44.331Z,84.76
2019-01-17T20:44:16.331Z,84.55
2019-01-17T20:46:45.510Z,83.24
2019-01-17T20:49:17.156Z,84.17
2019-01-17T20:51:48.134Z,84.33
2019-01-17T20:54:17.365Z,84.32
2019-01-17T20:56:46.495Z,84.47
2019-01-17T20:59:16.067Z,84.30
2019-01-17T21:01:57.940Z,84.71
2019-01-17T21:04:26.810Z,84.38
2019-01-17T21:06:55.676Z,84.43
2019-01-17T21:09:24.575Z,84.46
2019-01-17T21:11:53.454Z,84.30
2019-01-17T21:14:23.731Z,84.83
2019-01-17T21:16:55.245Z,83.68
2019-01-17T21:19:21.611Z,84.31
2019-01-17T21:21:50.469Z,84.26
2019-01-17T21:24:19.361Z,84.24
2019-01-17T21:26:48.255Z,84.54
2019-01-17T21:29:17.138Z,84.42
2019-01-17T21:31:46.043Z,84.45
2019-01-17T21:34:14.971Z,84.43
2019-01-17T21:36:43.818Z,84.43
2019-01-17T21:39:12.694Z,84.48
2019-01-17T21:41:44.030Z,84.70
2019-01-17T21:44:10.476Z,84.64
2019-01-17T21:46:39.388Z,84.93
2019-01-17T21:49:08.289Z,83.36
2019-01-17T21:51:37.174Z,84.17
2019-01-17T21:54:06.091Z,84.46
2019-01-17T21:56:34.975Z,84.53
2019-01-17T21:59:03.924Z,84.62
2019-01-17T22:01:32.832Z,84.67
2019-01-17T22:04:01.684Z,83.15
2019-01-17T22:06:30.562Z,83.84
2019-01-17T22:08:59.407Z,84.26
2019-01-17T22:11:28.296Z,83.90
2019-01-17T22:13:57.186Z,83.80
2019-01-17T22:16:26.127Z,83.61
2019-01-17T22:18:55.159Z,83.61
2019-01-17T22:21:24.029Z,83.79
2019-01-17T22:23:52.896Z,83.70
2019-01-17T22:26:21.755Z,83.44
2019-01-17T22:28:50.631Z,83.43
2019-01-17T22:31:19.500Z,83.38
2019-01-17T22:33:48.388Z,83.78
2019-01-17T22:36:17.285Z,83.41
2019-01-17T22:38:46.139Z,83.54
2019-01-17T22:41:15.027Z,83.45
2019-01-17T22:43:43.941Z,82.95
2019-01-17T22:46:12.788Z,82.87
2019-01-17T22:48:41.660Z,82.83
2019-01-17T22:51:10.563Z,81.79
2019-01-17T22:53:39.446Z,82.40
2019-01-17T22:56:08.364Z,82.37
2019-01-17T22:58:37.225Z,82.58
2019-01-17T23:01:21.470Z,82.97
2019-01-17T23:03:51.472Z,83.58
2019-01-17T23:06:20.337Z,84.25
2019-01-17T23:08:49.211Z,84.19
2019-01-17T23:11:18.053Z,84.38
2019-01-17T23:13:46.964Z,84.77
2019-01-17T23:16:15.821Z,84.19
2019-01-17T23:18:44.707Z,84.54
2019-01-17T23:21:13.600Z,84.69
2019-01-17T23:23:42.599Z,83.52
2019-01-17T23:26:11.498Z,84.69
2019-01-17T23:28:40.385Z,84.94
2019-01-17T23:31:09.311Z,85.14
2019-01-17T23:33:38.174Z,85.30
2019-01-17T23:36:07.119Z,85.12
2019-01-17T23:38:35.976Z,85.22
2019-01-17T23:41:04.909Z,85.85
2019-01-17T23:43:33.771Z,85.88
2019-01-17T23:46:02.648Z,85.69
2019-01-17T23:48:31.525Z,85.55
2019-01-17T23:51:00.401Z,85.12
2019-01-17T23:53:29.316Z,85.54
2019-01-17T23:55:58.200Z,85.74
2019-01-17T23:58:27.095Z,85.76
